sensor_id;sensor_type;location;lat;lon;timestamp;pressure;altitude;pressure_sealevel;temperature;humidity
65659;BME280;60181;53.258;6.932;2023-02-11T00:03:21;103221.66;;;13.51;62.93
65659;BME280;60181;53.258;6.932;2023-02-11T00:07:25;103226.07;;;13.49;62.94
65659;BME280;60181;53.258;6.932;2023-02-11T00:11:29;103226.61;;;13.47;62.89
65659;BME280;60181;53.258;6.932;2023-02-11T00:15:33;103227.45;;;13.46;62.87
65659;BME280;60181;53.258;6.932;2023-02-11T00:19:37;103224.34;;;13.44;62.83
65659;BME280;60181;53.258;6.932;2023-02-11T00:23:41;103219.92;;;13.43;62.84
65659;BME280;60181;53.258;6.932;2023-02-11T00:27:45;103216.08;;;13.42;62.83
65659;BME280;60181;53.258;6.932;2023-02-11T00:31:49;103210.42;;;13.41;62.85
65659;BME280;60181;53.258;6.932;2023-02-11T00:35:53;103204.10;;;13.40;62.81
65659;BME280;60181;53.258;6.932;2023-02-11T00:39:57;103199.39;;;13.46;62.02
65659;BME280;60181;53.258;6.932;2023-02-11T00:44:01;103198.90;;;13.57;61.61
65659;BME280;60181;53.258;6.932;2023-02-11T00:48:05;103199.26;;;13.68;61.56
65659;BME280;60181;53.258;6.932;2023-02-11T00:52:09;103204.72;;;13.78;61.86
65659;BME280;60181;53.258;6.932;2023-02-11T00:56:13;103206.15;;;13.85;62.16
65659;BME280;60181;53.258;6.932;2023-02-11T01:00:17;103205.52;;;13.91;62.21
65659;BME280;60181;53.258;6.932;2023-02-11T01:04:21;103207.71;;;13.96;62.27
65659;BME280;60181;53.258;6.932;2023-02-11T01:08:25;103208.89;;;14.00;62.42
65659;BME280;60181;53.258;6.932;2023-02-11T01:12:29;103207.24;;;14.02;62.52
65659;BME280;60181;53.258;6.932;2023-02-11T01:16:33;103207.26;;;14.04;62.52
65659;BME280;60181;53.258;6.932;2023-02-11T01:20:37;103204.96;;;14.06;62.54
65659;BME280;60181;53.258;6.932;2023-02-11T01:24:41;103201.01;;;14.08;62.54
65659;BME280;60181;53.258;6.932;2023-02-11T01:28:45;103199.08;;;14.09;62.63
65659;BME280;60181;53.258;6.932;2023-02-11T01:32:49;103198.86;;;14.09;62.68
65659;BME280;60181;53.258;6.932;2023-02-11T01:36:56;103198.83;;;14.10;62.67
65659;BME280;60181;53.258;6.932;2023-02-11T01:41:01;103195.95;;;14.10;62.75
65659;BME280;60181;53.258;6.932;2023-02-11T01:45:03;103193.57;;;14.11;62.69
65659;BME280;60181;53.258;6.932;2023-02-11T01:49:11;103191.25;;;14.11;62.67
65659;BME280;60181;53.258;6.932;2023-02-11T01:53:09;103191.70;;;14.11;62.58
65659;BME280;60181;53.258;6.932;2023-02-11T01:57:13;103192.94;;;14.11;62.65
65659;BME280;60181;53.258;6.932;2023-02-11T02:01:18;103191.54;;;14.11;62.50
65659;BME280;60181;53.258;6.932;2023-02-11T02:09:26;103186.32;;;14.11;62.65
65659;BME280;60181;53.258;6.932;2023-02-11T02:13:29;103180.98;;;14.11;62.58
65659;BME280;60181;53.258;6.932;2023-02-11T02:17:36;103176.05;;;14.11;63.36
65659;BME280;60181;53.258;6.932;2023-02-11T02:25:46;103167.57;;;14.11;63.47
65659;BME280;60181;53.258;6.932;2023-02-11T02:33:52;103162.28;;;14.11;63.15
65659;BME280;60181;53.258;6.932;2023-02-11T02:41:57;103157.18;;;14.11;63.39
65659;BME280;60181;53.258;6.932;2023-02-11T02:46:14;103155.86;;;14.11;63.21
65659;BME280;60181;53.258;6.932;2023-02-11T02:50:05;103151.83;;;14.11;63.11
65659;BME280;60181;53.258;6.932;2023-02-11T02:54:23;103148.45;;;14.12;62.75
65659;BME280;60181;53.258;6.932;2023-02-11T02:58:17;103144.82;;;14.12;62.84
65659;BME280;60181;53.258;6.932;2023-02-11T03:06:31;103137.01;;;14.10;62.87
65659;BME280;60181;53.258;6.932;2023-02-11T03:10:29;103134.64;;;14.09;62.96
65659;BME280;60181;53.258;6.932;2023-02-11T03:14:29;103131.87;;;14.08;63.00
65659;BME280;60181;53.258;6.932;2023-02-11T03:18:33;103130.66;;;14.07;63.03
65659;BME280;60181;53.258;6.932;2023-02-11T03:22:42;103130.37;;;14.06;63.00
65659;BME280;60181;53.258;6.932;2023-02-11T03:27:00;103130.43;;;14.05;62.95
65659;BME280;60181;53.258;6.932;2023-02-11T03:30:48;103129.65;;;14.05;62.92
65659;BME280;60181;53.258;6.932;2023-02-11T03:34:52;103127.84;;;14.05;62.90
65659;BME280;60181;53.258;6.932;2023-02-11T03:38:54;103127.01;;;14.05;63.01
65659;BME280;60181;53.258;6.932;2023-02-11T03:42:57;103125.85;;;14.04;63.10
65659;BME280;60181;53.258;6.932;2023-02-11T03:47:01;103125.82;;;14.04;63.12
65659;BME280;60181;53.258;6.932;2023-02-11T03:51:05;103125.72;;;14.04;63.18
65659;BME280;60181;53.258;6.932;2023-02-11T03:55:10;103124.27;;;14.03;63.22
65659;BME280;60181;53.258;6.932;2023-02-11T03:59:13;103124.01;;;14.03;63.26
65659;BME280;60181;53.258;6.932;2023-02-11T04:03:17;103124.67;;;14.02;63.30
65659;BME280;60181;53.258;6.932;2023-02-11T04:07:21;103124.29;;;14.02;63.40
65659;BME280;60181;53.258;6.932;2023-02-11T04:11:25;103124.94;;;14.01;63.41
65659;BME280;60181;53.258;6.932;2023-02-11T04:15:29;103127.00;;;14.01;63.41
65659;BME280;60181;53.258;6.932;2023-02-11T04:19:33;103128.67;;;14.00;63.48
65659;BME280;60181;53.258;6.932;2023-02-11T04:23:36;103128.97;;;14.01;63.45
65659;BME280;60181;53.258;6.932;2023-02-11T04:27:40;103128.87;;;14.02;63.75
65659;BME280;60181;53.258;6.932;2023-02-11T04:31:45;103126.14;;;14.04;63.77
65659;BME280;60181;53.258;6.932;2023-02-11T04:35:48;103124.54;;;14.04;63.61
65659;BME280;60181;53.258;6.932;2023-02-11T04:39:52;103125.01;;;14.06;64.36
65659;BME280;60181;53.258;6.932;2023-02-11T04:43:56;103126.62;;;14.07;64.12
65659;BME280;60181;53.258;6.932;2023-02-11T04:48:01;103126.01;;;14.06;64.05
65659;BME280;60181;53.258;6.932;2023-02-11T04:52:04;103126.25;;;14.06;64.35
65659;BME280;60181;53.258;6.932;2023-02-11T04:56:08;103127.16;;;14.06;64.05
65659;BME280;60181;53.258;6.932;2023-02-11T05:00:13;103128.81;;;14.06;64.16
65659;BME280;60181;53.258;6.932;2023-02-11T05:04:16;103131.93;;;14.06;64.22
65659;BME280;60181;53.258;6.932;2023-02-11T05:08:20;103132.92;;;14.06;64.29
65659;BME280;60181;53.258;6.932;2023-02-11T05:12:24;103133.58;;;14.06;64.35
65659;BME280;60181;53.258;6.932;2023-02-11T05:16:28;103132.30;;;14.03;64.80
65659;BME280;60181;53.258;6.932;2023-02-11T05:20:32;103130.57;;;13.94;64.71
65659;BME280;60181;53.258;6.932;2023-02-11T05:24:37;103128.76;;;13.82;64.77
65659;BME280;60181;53.258;6.932;2023-02-11T05:28:41;103129.36;;;13.73;64.65
65659;BME280;60181;53.258;6.932;2023-02-11T05:32:44;103129.83;;;13.65;64.79
65659;BME280;60181;53.258;6.932;2023-02-11T05:36:48;103131.46;;;13.58;64.47
65659;BME280;60181;53.258;6.932;2023-02-11T05:40:52;103132.35;;;13.53;64.46
65659;BME280;60181;53.258;6.932;2023-02-11T05:44:56;103132.20;;;13.49;64.30
65659;BME280;60181;53.258;6.932;2023-02-11T05:49:00;103131.74;;;13.45;64.23
65659;BME280;60181;53.258;6.932;2023-02-11T05:53:05;103132.54;;;13.42;64.17
65659;BME280;60181;53.258;6.932;2023-02-11T05:57:08;103132.56;;;13.39;64.17
65659;BME280;60181;53.258;6.932;2023-02-11T06:01:12;103131.36;;;13.37;64.13
65659;BME280;60181;53.258;6.932;2023-02-11T06:05:17;103130.52;;;13.35;64.20
65659;BME280;60181;53.258;6.932;2023-02-11T06:09:20;103129.13;;;13.33;64.01
65659;BME280;60181;53.258;6.932;2023-02-11T06:13:24;103127.78;;;13.32;64.14
65659;BME280;60181;53.258;6.932;2023-02-11T06:17:28;103125.10;;;13.30;63.96
65659;BME280;60181;53.258;6.932;2023-02-11T06:21:32;103123.34;;;13.32;63.64
65659;BME280;60181;53.258;6.932;2023-02-11T06:25:36;103122.86;;;13.38;63.18
65659;BME280;60181;53.258;6.932;2023-02-11T06:29:40;103124.27;;;13.44;63.30
65659;BME280;60181;53.258;6.932;2023-02-11T06:33:44;103124.13;;;13.49;63.23
65659;BME280;60181;53.258;6.932;2023-02-11T06:37:48;103125.78;;;13.54;63.36
65659;BME280;60181;53.258;6.932;2023-02-11T06:41:52;103127.56;;;13.57;63.55
65659;BME280;60181;53.258;6.932;2023-02-11T06:45:56;103130.74;;;13.60;63.75
65659;BME280;60181;53.258;6.932;2023-02-11T06:50:00;103134.39;;;13.62;63.91
65659;BME280;60181;53.258;6.932;2023-02-11T06:54:05;103138.65;;;13.63;64.09
65659;BME280;60181;53.258;6.932;2023-02-11T06:58:08;103143.31;;;13.64;64.21
65659;BME280;60181;53.258;6.932;2023-02-11T07:02:12;103146.53;;;13.65;64.30
65659;BME280;60181;53.258;6.932;2023-02-11T07:06:18;103147.78;;;13.65;64.38
65659;BME280;60181;53.258;6.932;2023-02-11T07:10:20;103148.89;;;13.65;64.40
65659;BME280;60181;53.258;6.932;2023-02-11T07:14:24;103149.96;;;13.65;64.47
65659;BME280;60181;53.258;6.932;2023-02-11T07:18:28;103149.30;;;13.65;64.52
65659;BME280;60181;53.258;6.932;2023-02-11T07:22:33;103148.08;;;13.66;64.55
65659;BME280;60181;53.258;6.932;2023-02-11T07:26:36;103147.17;;;13.66;64.61
65659;BME280;60181;53.258;6.932;2023-02-11T07:30:40;103146.80;;;13.66;64.58
65659;BME280;60181;53.258;6.932;2023-02-11T07:34:44;103148.05;;;13.66;64.69
65659;BME280;60181;53.258;6.932;2023-02-11T07:38:48;103148.38;;;13.66;64.71
65659;BME280;60181;53.258;6.932;2023-02-11T07:42:52;103149.71;;;13.67;64.68
65659;BME280;60181;53.258;6.932;2023-02-11T07:46:56;103149.29;;;13.67;64.71
65659;BME280;60181;53.258;6.932;2023-02-11T07:51:07;103151.23;;;13.68;64.69
65659;BME280;60181;53.258;6.932;2023-02-11T07:55:05;103153.92;;;13.69;64.72
65659;BME280;60181;53.258;6.932;2023-02-11T07:59:09;103157.64;;;13.69;64.73
65659;BME280;60181;53.258;6.932;2023-02-11T08:03:12;103161.57;;;13.71;64.58
65659;BME280;60181;53.258;6.932;2023-02-11T08:07:16;103166.20;;;13.72;64.63
65659;BME280;60181;53.258;6.932;2023-02-11T08:11:23;103171.08;;;13.73;64.70
65659;BME280;60181;53.258;6.932;2023-02-11T08:15:24;103175.17;;;13.73;64.74
65659;BME280;60181;53.258;6.932;2023-02-11T08:19:28;103180.24;;;13.74;64.77
65659;BME280;60181;53.258;6.932;2023-02-11T08:23:32;103183.84;;;13.75;64.71
65659;BME280;60181;53.258;6.932;2023-02-11T08:27:36;103186.54;;;13.77;64.60
65659;BME280;60181;53.258;6.932;2023-02-11T08:31:41;103190.14;;;13.78;64.58
65659;BME280;60181;53.258;6.932;2023-02-11T08:35:44;103194.49;;;13.79;64.57
65659;BME280;60181;53.258;6.932;2023-02-11T08:39:48;103200.57;;;13.81;64.56
65659;BME280;60181;53.258;6.932;2023-02-11T08:43:52;103207.21;;;13.82;64.54
65659;BME280;60181;53.258;6.932;2023-02-11T08:47:56;103213.21;;;13.83;64.59
65659;BME280;60181;53.258;6.932;2023-02-11T08:52:00;103220.14;;;13.84;64.66
65659;BME280;60181;53.258;6.932;2023-02-11T08:56:04;103224.85;;;13.85;64.58
65659;BME280;60181;53.258;6.932;2023-02-11T09:00:09;103229.20;;;13.86;64.83
65659;BME280;60181;53.258;6.932;2023-02-11T09:04:12;103234.61;;;13.87;64.77
65659;BME280;60181;53.258;6.932;2023-02-11T09:08:16;103239.34;;;13.89;64.70
65659;BME280;60181;53.258;6.932;2023-02-11T09:12:20;103245.89;;;13.92;64.60
65659;BME280;60181;53.258;6.932;2023-02-11T09:16:25;103253.55;;;13.95;64.76
65659;BME280;60181;53.258;6.932;2023-02-11T09:20:28;103259.97;;;13.99;65.26
65659;BME280;60181;53.258;6.932;2023-02-11T09:24:32;103267.00;;;14.03;64.73
65659;BME280;60181;53.258;6.932;2023-02-11T09:28:36;103274.27;;;14.05;64.69
65659;BME280;60181;53.258;6.932;2023-02-11T09:32:40;103280.13;;;14.05;64.70
65659;BME280;60181;53.258;6.932;2023-02-11T09:36:44;103285.23;;;14.04;64.60
65659;BME280;60181;53.258;6.932;2023-02-11T09:40:48;103289.88;;;14.04;64.61
65659;BME280;60181;53.258;6.932;2023-02-11T09:44:52;103294.10;;;14.03;64.55
65659;BME280;60181;53.258;6.932;2023-02-11T09:48:56;103299.23;;;14.01;64.50
65659;BME280;60181;53.258;6.932;2023-02-11T09:53:01;103305.68;;;14.00;64.50
65659;BME280;60181;53.258;6.932;2023-02-11T09:57:04;103312.78;;;13.99;64.44
65659;BME280;60181;53.258;6.932;2023-02-11T10:05:16;103329.31;;;13.97;64.34
65659;BME280;60181;53.258;6.932;2023-02-11T10:09:26;103335.35;;;13.96;64.30
65659;BME280;60181;53.258;6.932;2023-02-11T10:13:26;103339.01;;;13.95;64.30
65659;BME280;60181;53.258;6.932;2023-02-11T10:17:29;103340.22;;;13.94;64.27
65659;BME280;60181;53.258;6.932;2023-02-11T10:25:33;103345.70;;;13.94;64.16
65659;BME280;60181;53.258;6.932;2023-02-11T10:29:40;103349.78;;;13.94;64.15
65659;BME280;60181;53.258;6.932;2023-02-11T10:33:50;103353.17;;;13.94;64.10
65659;BME280;60181;53.258;6.932;2023-02-11T10:37:44;103354.83;;;13.95;64.00
65659;BME280;60181;53.258;6.932;2023-02-11T10:41:52;103356.29;;;13.96;64.00
65659;BME280;60181;53.258;6.932;2023-02-11T10:45:53;103354.76;;;13.96;63.93
65659;BME280;60181;53.258;6.932;2023-02-11T10:49:56;103353.44;;;13.98;63.87
65659;BME280;60181;53.258;6.932;2023-02-11T10:58:04;103354.28;;;14.01;64.26
65659;BME280;60181;53.258;6.932;2023-02-11T11:02:22;103356.10;;;14.12;63.55
65659;BME280;60181;53.258;6.932;2023-02-11T11:06:12;103358.28;;;14.16;64.08
65659;BME280;60181;53.258;6.932;2023-02-11T11:14:20;103366.78;;;14.18;64.12
65659;BME280;60181;53.258;6.932;2023-02-11T11:18:24;103370.90;;;14.16;64.16
65659;BME280;60181;53.258;6.932;2023-02-11T11:22:28;103374.21;;;14.15;64.18
65659;BME280;60181;53.258;6.932;2023-02-11T11:26:42;103377.56;;;14.13;64.22
65659;BME280;60181;53.258;6.932;2023-02-11T11:30:40;103381.03;;;14.12;64.13
65659;BME280;60181;53.258;6.932;2023-02-11T11:34:40;103385.39;;;14.11;64.18
65659;BME280;60181;53.258;6.932;2023-02-11T11:38:45;103389.87;;;14.10;64.18
65659;BME280;60181;53.258;6.932;2023-02-11T11:43:14;103393.29;;;14.10;64.15
65659;BME280;60181;53.258;6.932;2023-02-11T11:50:57;103399.95;;;14.09;64.15
65659;BME280;60181;53.258;6.932;2023-02-11T11:59:09;103403.41;;;14.09;64.10
65659;BME280;60181;53.258;6.932;2023-02-11T12:23:40;103401.42;;;14.11;64.09
65659;BME280;60181;53.258;6.932;2023-02-11T12:27:36;103401.33;;;14.10;64.11
65659;BME280;60181;53.258;6.932;2023-02-11T12:31:43;103402.14;;;14.10;64.17
65659;BME280;60181;53.258;6.932;2023-02-11T12:35:47;103404.64;;;14.09;64.16
65659;BME280;60181;53.258;6.932;2023-02-11T12:43:48;103409.69;;;14.08;64.23
65659;BME280;60181;53.258;6.932;2023-02-11T12:48:00;103412.01;;;14.07;64.23
65659;BME280;60181;53.258;6.932;2023-02-11T12:52:15;103414.07;;;14.07;64.23
65659;BME280;60181;53.258;6.932;2023-02-11T12:56:03;103415.34;;;14.06;64.21
65659;BME280;60181;53.258;6.932;2023-02-11T13:04:24;103417.07;;;14.05;64.23
65659;BME280;60181;53.258;6.932;2023-02-11T13:08:20;103419.86;;;14.05;64.21
65659;BME280;60181;53.258;6.932;2023-02-11T13:12:16;103421.39;;;14.05;64.19
65659;BME280;60181;53.258;6.932;2023-02-11T13:20:27;103419.78;;;14.05;64.16
65659;BME280;60181;53.258;6.932;2023-02-11T13:24:46;103420.53;;;14.06;64.11
65659;BME280;60181;53.258;6.932;2023-02-11T13:36:40;103423.16;;;14.07;64.06
65659;BME280;60181;53.258;6.932;2023-02-11T13:40:44;103422.38;;;14.08;64.06
65659;BME280;60181;53.258;6.932;2023-02-11T13:44:48;103422.13;;;14.08;64.11
65659;BME280;60181;53.258;6.932;2023-02-11T13:48:52;103423.78;;;14.08;64.08
65659;BME280;60181;53.258;6.932;2023-02-11T13:52:57;103426.51;;;14.08;64.04
65659;BME280;60181;53.258;6.932;2023-02-11T14:01:04;103430.03;;;14.09;64.07
65659;BME280;60181;53.258;6.932;2023-02-11T14:17:26;103433.28;;;14.11;64.02
65659;BME280;60181;53.258;6.932;2023-02-11T14:25:28;103436.57;;;14.13;64.01
65659;BME280;60181;53.258;6.932;2023-02-11T14:41:44;103438.66;;;14.15;63.99
65659;BME280;60181;53.258;6.932;2023-02-11T14:45:52;103440.06;;;14.15;64.03
65659;BME280;60181;53.258;6.932;2023-02-11T14:49:52;103442.46;;;14.15;64.03
65659;BME280;60181;53.258;6.932;2023-02-11T14:53:57;103444.73;;;14.15;64.05
65659;BME280;60181;53.258;6.932;2023-02-11T15:02:19;103454.64;;;14.15;64.13
65659;BME280;60181;53.258;6.932;2023-02-11T15:06:17;103458.89;;;14.14;64.45
65659;BME280;60181;53.258;6.932;2023-02-11T15:18:20;103467.61;;;14.13;64.11
65659;BME280;60181;53.258;6.932;2023-02-11T15:22:27;103471.69;;;14.13;64.14
65659;BME280;60181;53.258;6.932;2023-02-11T15:26:28;103476.78;;;14.12;64.14
65659;BME280;60181;53.258;6.932;2023-02-11T15:30:32;103481.05;;;14.12;64.12
65659;BME280;60181;53.258;6.932;2023-02-11T15:34:36;103482.98;;;14.11;64.15
65659;BME280;60181;53.258;6.932;2023-02-11T15:38:40;103483.63;;;14.11;64.16
65659;BME280;60181;53.258;6.932;2023-02-11T15:42:56;103485.40;;;14.10;64.19
65659;BME280;60181;53.258;6.932;2023-02-11T15:46:48;103487.21;;;14.10;64.19
65659;BME280;60181;53.258;6.932;2023-02-11T15:50:52;103488.31;;;14.09;64.23
65659;BME280;60181;53.258;6.932;2023-02-11T15:54:56;103489.53;;;14.09;64.23
65659;BME280;60181;53.258;6.932;2023-02-11T15:59:07;103490.52;;;14.09;64.28
65659;BME280;60181;53.258;6.932;2023-02-11T16:03:04;103491.61;;;14.08;64.26
65659;BME280;60181;53.258;6.932;2023-02-11T16:07:35;103493.09;;;14.08;64.29
65659;BME280;60181;53.258;6.932;2023-02-11T16:11:21;103494.46;;;14.07;64.33
65659;BME280;60181;53.258;6.932;2023-02-11T16:19:20;103498.10;;;14.06;64.36
65659;BME280;60181;53.258;6.932;2023-02-11T16:23:33;103501.38;;;14.05;64.40
65659;BME280;60181;53.258;6.932;2023-02-11T16:27:36;103504.46;;;14.05;64.41
65659;BME280;60181;53.258;6.932;2023-02-11T16:31:32;103506.19;;;14.05;64.59
65659;BME280;60181;53.258;6.932;2023-02-11T16:35:36;103507.97;;;14.05;64.37
65659;BME280;60181;53.258;6.932;2023-02-11T16:39:40;103510.69;;;14.06;64.44
65659;BME280;60181;53.258;6.932;2023-02-11T16:43:44;103513.90;;;14.05;64.55
65659;BME280;60181;53.258;6.932;2023-02-11T16:47:48;103518.71;;;14.05;64.58
65659;BME280;60181;53.258;6.932;2023-02-11T16:51:52;103523.97;;;14.04;64.61
65659;BME280;60181;53.258;6.932;2023-02-11T16:55:56;103528.78;;;14.03;64.61
65659;BME280;60181;53.258;6.932;2023-02-11T17:00:00;103534.73;;;14.03;64.62
65659;BME280;60181;53.258;6.932;2023-02-11T17:04:04;103540.98;;;14.02;64.58
65659;BME280;60181;53.258;6.932;2023-02-11T17:08:08;103546.02;;;14.02;64.59
65659;BME280;60181;53.258;6.932;2023-02-11T17:12:11;103550.34;;;14.02;64.57
65659;BME280;60181;53.258;6.932;2023-02-11T17:16:16;103552.88;;;14.01;64.58
65659;BME280;60181;53.258;6.932;2023-02-11T17:20:20;103555.69;;;14.01;64.58
65659;BME280;60181;53.258;6.932;2023-02-11T17:24:23;103558.83;;;14.01;64.55
65659;BME280;60181;53.258;6.932;2023-02-11T17:28:27;103561.62;;;14.01;64.58
65659;BME280;60181;53.258;6.932;2023-02-11T17:32:32;103566.16;;;14.02;64.60
65659;BME280;60181;53.258;6.932;2023-02-11T17:36:36;103570.08;;;14.02;64.59
65659;BME280;60181;53.258;6.932;2023-02-11T17:40:40;103574.61;;;14.02;64.56
65659;BME280;60181;53.258;6.932;2023-02-11T17:44:44;103577.66;;;14.02;64.58
65659;BME280;60181;53.258;6.932;2023-02-11T17:48:47;103581.93;;;14.02;64.59
65659;BME280;60181;53.258;6.932;2023-02-11T17:52:51;103585.50;;;14.02;64.64
65659;BME280;60181;53.258;6.932;2023-02-11T17:56:55;103589.38;;;14.02;64.63
65659;BME280;60181;53.258;6.932;2023-02-11T18:01:00;103593.42;;;14.03;64.63
65659;BME280;60181;53.258;6.932;2023-02-11T18:05:04;103597.38;;;14.03;64.63
65659;BME280;60181;53.258;6.932;2023-02-11T18:09:07;103601.90;;;14.02;64.63
65659;BME280;60181;53.258;6.932;2023-02-11T18:13:11;103605.69;;;14.02;64.64
65659;BME280;60181;53.258;6.932;2023-02-11T18:17:15;103608.54;;;14.09;64.59
65659;BME280;60181;53.258;6.932;2023-02-11T18:21:20;103611.17;;;14.12;64.54
65659;BME280;60181;53.258;6.932;2023-02-11T18:25:23;103614.12;;;14.12;64.67
65659;BME280;60181;53.258;6.932;2023-02-11T18:29:27;103617.70;;;14.11;64.88
65659;BME280;60181;53.258;6.932;2023-02-11T18:33:32;103620.26;;;14.10;64.92
65659;BME280;60181;53.258;6.932;2023-02-11T18:37:35;103622.55;;;14.09;64.94
65659;BME280;60181;53.258;6.932;2023-02-11T18:41:39;103625.00;;;14.07;64.94
65659;BME280;60181;53.258;6.932;2023-02-11T18:45:44;103628.36;;;14.07;64.97
65659;BME280;60181;53.258;6.932;2023-02-11T18:49:47;103630.86;;;14.06;64.95
65659;BME280;60181;53.258;6.932;2023-02-11T18:53:51;103632.53;;;14.05;64.91
65659;BME280;60181;53.258;6.932;2023-02-11T18:57:55;103633.35;;;14.04;64.93
65659;BME280;60181;53.258;6.932;2023-02-11T19:01:59;103634.97;;;14.05;65.07
65659;BME280;60181;53.258;6.932;2023-02-11T19:06:04;103635.47;;;14.06;65.04
65659;BME280;60181;53.258;6.932;2023-02-11T19:10:08;103636.54;;;14.07;64.88
65659;BME280;60181;53.258;6.932;2023-02-11T19:14:12;103637.74;;;14.08;64.74
65659;BME280;60181;53.258;6.932;2023-02-11T19:18:15;103639.67;;;14.07;64.91
65659;BME280;60181;53.258;6.932;2023-02-11T19:22:19;103642.63;;;14.07;64.91
65659;BME280;60181;53.258;6.932;2023-02-11T19:26:26;103645.13;;;14.06;64.92
65659;BME280;60181;53.258;6.932;2023-02-11T19:30:28;103648.90;;;14.05;64.91
65659;BME280;60181;53.258;6.932;2023-02-11T19:34:31;103653.09;;;14.05;64.90
65659;BME280;60181;53.258;6.932;2023-02-11T19:38:35;103655.85;;;14.05;64.89
65659;BME280;60181;53.258;6.932;2023-02-11T19:42:39;103659.06;;;14.04;64.91
65659;BME280;60181;53.258;6.932;2023-02-11T19:46:43;103662.79;;;14.04;64.90
65659;BME280;60181;53.258;6.932;2023-02-11T19:50:47;103669.23;;;14.04;64.89
65659;BME280;60181;53.258;6.932;2023-02-11T19:54:51;103676.06;;;14.04;64.92
65659;BME280;60181;53.258;6.932;2023-02-11T19:58:55;103682.98;;;14.04;64.89
65659;BME280;60181;53.258;6.932;2023-02-11T20:02:59;103689.99;;;14.03;64.92
65659;BME280;60181;53.258;6.932;2023-02-11T20:07:03;103697.23;;;14.03;64.92
65659;BME280;60181;53.258;6.932;2023-02-11T20:11:08;103704.98;;;14.03;64.96
65659;BME280;60181;53.258;6.932;2023-02-11T20:15:11;103708.84;;;14.03;64.94
65659;BME280;60181;53.258;6.932;2023-02-11T20:19:20;103712.46;;;14.03;64.92
65659;BME280;60181;53.258;6.932;2023-02-11T20:23:19;103716.80;;;14.03;64.92
65659;BME280;60181;53.258;6.932;2023-02-11T20:27:23;103721.41;;;14.03;64.92
65659;BME280;60181;53.258;6.932;2023-02-11T20:31:30;103725.24;;;14.05;65.22
65659;BME280;60181;53.258;6.932;2023-02-11T20:35:31;103729.13;;;14.09;64.71
65659;BME280;60181;53.258;6.932;2023-02-11T20:39:35;103731.75;;;14.10;64.76
65659;BME280;60181;53.258;6.932;2023-02-11T20:43:40;103734.41;;;14.11;65.10
65659;BME280;60181;53.258;6.932;2023-02-11T20:47:43;103734.75;;;14.26;63.73
65659;BME280;60181;53.258;6.932;2023-02-11T20:51:47;103734.64;;;14.45;63.05
65659;BME280;60181;53.258;6.932;2023-02-11T20:55:51;103735.72;;;14.54;64.08
65659;BME280;60181;53.258;6.932;2023-02-11T20:59:55;103737.23;;;14.53;64.62
65659;BME280;60181;53.258;6.932;2023-02-11T21:04:00;103740.09;;;14.50;64.80
65659;BME280;60181;53.258;6.932;2023-02-11T21:08:03;103743.04;;;14.45;64.63
65659;BME280;60181;53.258;6.932;2023-02-11T21:12:07;103746.47;;;14.42;64.67
65659;BME280;60181;53.258;6.932;2023-02-11T21:16:12;103749.49;;;14.38;64.68
65659;BME280;60181;53.258;6.932;2023-02-11T21:20:15;103752.98;;;14.36;64.69
65659;BME280;60181;53.258;6.932;2023-02-11T21:24:19;103756.71;;;14.33;64.70
65659;BME280;60181;53.258;6.932;2023-02-11T21:28:23;103759.33;;;14.32;64.74
65659;BME280;60181;53.258;6.932;2023-02-11T21:32:27;103760.89;;;14.30;64.76
65659;BME280;60181;53.258;6.932;2023-02-11T21:36:31;103760.90;;;14.29;64.78
65659;BME280;60181;53.258;6.932;2023-02-11T21:40:35;103760.18;;;14.28;64.77
65659;BME280;60181;53.258;6.932;2023-02-11T21:44:39;103761.36;;;14.27;64.80
65659;BME280;60181;53.258;6.932;2023-02-11T21:48:43;103764.36;;;14.26;64.85
65659;BME280;60181;53.258;6.932;2023-02-11T21:52:47;103768.81;;;14.25;64.92
65659;BME280;60181;53.258;6.932;2023-02-11T21:56:51;103773.36;;;14.23;64.97
65659;BME280;60181;53.258;6.932;2023-02-11T22:00:55;103777.66;;;14.22;65.01
65659;BME280;60181;53.258;6.932;2023-02-11T22:04:59;103781.75;;;14.21;64.99
65659;BME280;60181;53.258;6.932;2023-02-11T22:09:04;103785.39;;;14.19;65.01
65659;BME280;60181;53.258;6.932;2023-02-11T22:13:07;103790.72;;;14.19;65.00
65659;BME280;60181;53.258;6.932;2023-02-11T22:17:11;103796.94;;;14.18;64.98
65659;BME280;60181;53.258;6.932;2023-02-11T22:21:16;103801.79;;;14.23;64.90
65659;BME280;60181;53.258;6.932;2023-02-11T22:25:19;103806.63;;;14.32;64.49
65659;BME280;60181;53.258;6.932;2023-02-11T22:29:23;103809.86;;;14.42;64.51
65659;BME280;60181;53.258;6.932;2023-02-11T22:33:27;103814.12;;;14.50;64.22
65659;BME280;60181;53.258;6.932;2023-02-11T22:37:31;103818.58;;;14.57;64.12
65659;BME280;60181;53.258;6.932;2023-02-11T22:41:35;103822.69;;;14.63;64.05
65659;BME280;60181;53.258;6.932;2023-02-11T22:45:39;103825.74;;;14.67;64.03
65659;BME280;60181;53.258;6.932;2023-02-11T22:49:43;103827.23;;;14.69;64.00
65659;BME280;60181;53.258;6.932;2023-02-11T22:54:05;103828.44;;;14.72;63.97
65659;BME280;60181;53.258;6.932;2023-02-11T22:57:51;103829.42;;;14.73;63.96
65659;BME280;60181;53.258;6.932;2023-02-11T23:01:55;103830.14;;;14.74;63.90
65659;BME280;60181;53.258;6.932;2023-02-11T23:05:59;103832.26;;;14.75;63.91
65659;BME280;60181;53.258;6.932;2023-02-11T23:10:03;103832.69;;;14.75;63.87
65659;BME280;60181;53.258;6.932;2023-02-11T23:14:07;103834.39;;;14.76;63.82
65659;BME280;60181;53.258;6.932;2023-02-11T23:18:11;103837.94;;;14.76;63.84
65659;BME280;60181;53.258;6.932;2023-02-11T23:22:15;103840.27;;;14.76;64.02
65659;BME280;60181;53.258;6.932;2023-02-11T23:26:19;103843.71;;;14.78;64.10
65659;BME280;60181;53.258;6.932;2023-02-11T23:30:23;103847.00;;;14.78;64.16